< < Back
Terminal Aerodrome Forecast


Current Version              Previous Versions:   1  2  3  4  5  6  7  8  9  

Terminal Aerodrome Forecast

113
FTUS44 KOHX 291121
TAFCSV
TAF
KCSV 291121Z 2912/3012 00000KT P6SM SCT050
     FM291500 17006KT P6SM SCT050 BKN250
     FM291800 18006KT P6SM BKN050
     FM300000 00000KT P6SM OVC150=

Latest METAR

712
SAUS70 KWBC 292100 RRF
MTRCSV
METAR KCSV 292053Z AUTO 17005KT 10SM FEW034 SCT090 26/18 A3016 RMK AO2
SLP189 T02610183 56018


USA.gov is the U.S. government's official web portal to all federal, state and local government web resources and services.